createdAt,value
2022-12-03T00:03:24.959Z,1.70
2022-12-03T00:08:28.572Z,1.80
2022-12-03T00:13:32.145Z,1.90
2022-12-03T00:18:37.319Z,1.52
2022-12-03T00:23:42.415Z,1.80
2022-12-03T00:28:46.221Z,1.33
2022-12-03T00:33:51.483Z,1.60
2022-12-03T00:38:55.098Z,1.70
2022-12-03T00:43:58.635Z,1.55
2022-12-03T00:49:03.833Z,1.75
2022-12-03T00:54:07.397Z,1.70
2022-12-03T00:59:10.951Z,1.45
2022-12-03T01:04:16.211Z,1.50
2022-12-03T01:09:19.951Z,1.77
2022-12-03T01:14:23.711Z,1.70
2022-12-03T01:19:28.929Z,1.92
2022-12-03T01:24:32.477Z,1.80
2022-12-03T01:29:36.042Z,2.10
2022-12-03T01:34:41.266Z,2.10
2022-12-03T01:39:45.024Z,2.28
2022-12-03T01:44:51.618Z,2.22
2022-12-03T01:50:00.861Z,2.40
2022-12-03T01:55:08.276Z,2.78
2022-12-03T02:00:15.391Z,2.53
2022-12-03T02:05:23.289Z,2.30
2022-12-03T02:10:29.013Z,2.47
2022-12-03T02:15:32.667Z,2.27
2022-12-03T02:20:46.742Z,1.90
2022-12-03T02:25:52.930Z,2.20
2022-12-03T02:30:56.929Z,2.08
2022-12-03T02:36:03.560Z,2.90
2022-12-03T02:41:12.977Z,3.63
2022-12-03T02:46:16.601Z,3.00
2022-12-03T02:51:20.202Z,2.50
2022-12-03T02:56:29.444Z,2.90
2022-12-03T03:01:33.464Z,3.03
2022-12-03T03:06:37.260Z,2.20
2022-12-03T03:11:42.487Z,2.38
2022-12-03T03:16:46.089Z,2.40
2022-12-03T03:21:49.777Z,2.20
2022-12-03T03:26:55.381Z,2.75
2022-12-03T03:32:00.315Z,2.40
2022-12-03T03:37:03.978Z,2.70
2022-12-03T03:42:09.306Z,2.17
2022-12-03T03:47:13.910Z,2.40
2022-12-03T03:52:18.013Z,2.40
2022-12-03T03:57:23.430Z,1.90
2022-12-03T04:02:28.511Z,2.03
2022-12-03T04:07:32.183Z,2.25
2022-12-03T04:12:38.299Z,2.38
2022-12-03T04:17:41.949Z,2.45
2022-12-03T04:22:45.493Z,2.33
2022-12-03T04:27:50.688Z,2.60
2022-12-03T04:32:54.309Z,5.57
2022-12-03T04:37:57.855Z,2.60
2022-12-03T04:43:04.107Z,2.72
2022-12-03T04:48:07.822Z,2.30
2022-12-03T04:53:11.456Z,2.45
2022-12-03T04:58:16.741Z,2.53
2022-12-03T05:03:25.794Z,2.50
2022-12-03T05:08:29.565Z,2.20
2022-12-03T05:13:34.796Z,2.40
2022-12-03T05:18:39.099Z,2.65
2022-12-03T05:23:42.686Z,2.30
2022-12-03T05:28:47.926Z,2.30
2022-12-03T05:33:51.505Z,2.40
2022-12-03T05:38:55.071Z,2.30
2022-12-03T05:44:15.087Z,2.03
2022-12-03T05:49:22.560Z,2.33
2022-12-03T05:54:26.107Z,2.30
2022-12-03T05:59:31.344Z,2.60
2022-12-03T06:04:34.880Z,2.40
2022-12-03T06:09:38.429Z,2.33
2022-12-03T06:14:43.624Z,2.40
2022-12-03T06:19:47.254Z,2.30
2022-12-03T06:24:50.918Z,2.33
2022-12-03T06:29:56.182Z,2.15
2022-12-03T06:34:59.733Z,2.30
2022-12-03T06:40:03.448Z,2.58
2022-12-03T06:45:09.356Z,2.22
2022-12-03T06:50:13.292Z,2.47
2022-12-03T06:55:16.964Z,2.40
2022-12-03T07:00:23.129Z,2.30
2022-12-03T07:05:26.676Z,2.40
2022-12-03T07:10:30.365Z,2.50
2022-12-03T07:15:35.593Z,2.60
2022-12-03T07:20:39.146Z,2.47
2022-12-03T07:25:42.658Z,2.20
2022-12-03T07:30:47.889Z,2.42
2022-12-03T07:35:51.448Z,2.40
2022-12-03T07:40:54.994Z,2.40
2022-12-03T07:46:00.222Z,2.42
2022-12-03T07:51:03.814Z,2.50
2022-12-03T07:56:08.253Z,2.50
2022-12-03T08:01:13.624Z,2.33
2022-12-03T08:06:17.249Z,2.22
2022-12-03T08:11:20.792Z,2.38
2022-12-03T08:16:26.664Z,2.33
2022-12-03T08:21:35.188Z,2.60
2022-12-03T08:26:38.748Z,2.20
2022-12-03T08:31:48.184Z,2.40
2022-12-03T08:36:56.854Z,2.53
2022-12-03T08:42:13.684Z,2.17
2022-12-03T08:47:22.446Z,2.20
2022-12-03T08:52:32.276Z,2.30
2022-12-03T08:57:36.594Z,2.33
2022-12-03T09:02:46.896Z,2.10
2022-12-03T09:07:50.575Z,2.03
2022-12-03T09:12:54.956Z,2.00
2022-12-03T09:18:00.158Z,2.53
2022-12-03T09:23:04.140Z,2.00
2022-12-03T09:28:07.684Z,2.10
2022-12-03T09:33:13.750Z,2.20
2022-12-03T09:38:17.325Z,2.40
2022-12-03T09:43:21.462Z,2.30
2022-12-03T09:48:26.680Z,2.33
2022-12-03T09:53:31.410Z,2.53
2022-12-03T09:58:35.166Z,2.30
2022-12-03T10:03:45.598Z,2.10
2022-12-03T10:08:50.027Z,1.98
2022-12-03T10:13:55.947Z,2.30
2022-12-03T10:19:01.969Z,2.38
2022-12-03T10:24:26.496Z,2.10
2022-12-03T10:29:34.308Z,2.10
2022-12-03T10:34:41.313Z,2.30
2022-12-03T10:39:56.560Z,2.25
2022-12-03T10:45:19.440Z,2.17
2022-12-03T10:50:24.646Z,2.38
2022-12-03T10:55:29.754Z,2.40
2022-12-03T11:00:33.288Z,2.28
2022-12-03T11:05:39.285Z,2.45
2022-12-03T11:10:43.072Z,2.30
2022-12-03T11:15:46.862Z,2.53
2022-12-03T11:21:13.288Z,2.40
2022-12-03T11:26:19.560Z,2.78
2022-12-03T11:37:18.867Z,2.50
2022-12-03T11:42:41.299Z,2.78
2022-12-03T11:47:46.899Z,2.55
2022-12-03T11:52:56.349Z,2.20
2022-12-03T11:58:00.944Z,2.58
2022-12-03T12:03:04.635Z,2.40
2022-12-03T12:08:19.801Z,2.80
2022-12-03T12:13:50.716Z,2.50
2022-12-03T12:18:55.736Z,2.40
2022-12-03T12:24:34.520Z,3.10
2022-12-03T12:29:39.545Z,2.80
2022-12-03T12:34:45.134Z,2.80
2022-12-03T12:39:53.445Z,2.80
2022-12-03T12:45:01.362Z,2.80
2022-12-03T12:50:11.639Z,2.63
2022-12-03T12:55:17.079Z,2.63
2022-12-03T13:00:22.892Z,2.72
2022-12-03T13:05:26.617Z,2.97
2022-12-03T13:10:41.500Z,3.28
2022-12-03T13:15:50.429Z,3.00
2022-12-03T13:20:54.624Z,3.42
2022-12-03T13:26:13.159Z,3.50
2022-12-03T13:31:28.259Z,3.33
2022-12-03T13:36:41.295Z,3.30
2022-12-03T13:41:46.994Z,3.70
2022-12-03T13:46:50.544Z,4.30
2022-12-03T13:51:54.134Z,4.78
2022-12-03T13:56:59.323Z,5.57
2022-12-03T14:02:02.925Z,5.97
2022-12-03T14:07:06.801Z,5.82
2022-12-03T14:12:12.008Z,5.50
2022-12-03T14:17:15.654Z,5.55
2022-12-03T14:22:19.208Z,5.72
2022-12-03T14:27:25.055Z,7.13
2022-12-03T14:32:28.684Z,7.47
2022-12-03T14:37:32.935Z,5.80
2022-12-03T14:42:38.381Z,6.53
2022-12-03T14:47:41.904Z,5.75
2022-12-03T14:52:45.470Z,6.07
2022-12-03T14:57:50.640Z,6.47
2022-12-03T15:02:54.236Z,6.82
2022-12-03T15:07:57.953Z,7.60
2022-12-03T15:13:03.203Z,5.90
2022-12-03T15:18:06.839Z,7.13
2022-12-03T15:23:14.293Z,6.32
2022-12-03T15:28:19.947Z,6.80
2022-12-03T15:33:23.515Z,7.55
2022-12-03T15:38:27.056Z,8.05
2022-12-03T15:43:32.251Z,6.70
2022-12-03T15:48:35.780Z,6.50
2022-12-03T15:53:39.377Z,7.20
2022-12-03T15:58:44.628Z,7.07
2022-12-03T16:03:48.197Z,8.45
2022-12-03T16:08:51.803Z,8.30
2022-12-03T16:13:57.087Z,9.07
2022-12-03T16:19:00.706Z,8.63
2022-12-03T16:24:04.283Z,7.63
2022-12-03T16:29:09.491Z,7.93
2022-12-03T16:34:13.053Z,9.80
2022-12-03T16:39:17.419Z,9.52
2022-12-03T16:44:22.648Z,8.45
2022-12-03T16:49:26.245Z,8.85
2022-12-03T16:54:29.779Z,8.40
2022-12-03T16:59:34.987Z,9.18
2022-12-03T17:04:38.559Z,8.52
2022-12-03T17:09:42.136Z,7.72
2022-12-03T17:14:47.397Z,8.38
2022-12-03T17:19:51.128Z,9.98
2022-12-03T17:24:57.891Z,10.77
2022-12-03T17:30:05.429Z,9.50
2022-12-03T17:35:10.871Z,10.35
2022-12-03T17:40:15.641Z,12.57
2022-12-03T17:45:20.936Z,9.35
2022-12-03T17:50:24.518Z,9.75
2022-12-03T17:55:38.322Z,9.30
2022-12-03T18:00:48.072Z,11.18
2022-12-03T18:05:51.643Z,10.60
2022-12-03T18:10:55.217Z,11.95
2022-12-03T18:16:00.477Z,13.30
2022-12-03T18:21:04.251Z,17.38
2022-12-03T18:26:08.035Z,13.57
2022-12-03T18:31:15.453Z,13.95
2022-12-03T18:36:22.962Z,14.18
2022-12-03T18:41:26.764Z,18.42
2022-12-03T18:47:02.068Z,20.23
2022-12-03T18:51:59.500Z,18.08
2022-12-03T18:57:03.347Z,21.98
2022-12-03T19:02:11.614Z,22.30
2022-12-03T19:07:16.769Z,19.85
2022-12-03T19:12:20.356Z,23.27
2022-12-03T19:17:25.560Z,22.38
2022-12-03T19:22:29.095Z,23.35
2022-12-03T19:27:32.951Z,20.88
2022-12-03T19:32:38.227Z,22.63
2022-12-03T19:37:41.865Z,22.75
2022-12-03T19:42:45.508Z,22.10
2022-12-03T19:47:50.834Z,21.63
2022-12-03T19:52:54.360Z,23.33
2022-12-03T19:57:58.014Z,19.95
2022-12-03T20:03:03.445Z,20.42
2022-12-03T20:08:08.347Z,21.47
2022-12-03T20:13:11.970Z,24.05
2022-12-03T20:18:17.141Z,22.65
2022-12-03T20:23:20.691Z,22.60
2022-12-03T20:28:24.281Z,21.10
2022-12-03T20:33:29.736Z,22.80
2022-12-03T20:38:33.366Z,21.33
2022-12-03T20:43:37.252Z,21.75
2022-12-03T20:48:43.444Z,20.60
2022-12-03T20:53:47.351Z,22.13
2022-12-03T20:58:51.264Z,20.85
2022-12-03T21:03:57.644Z,20.27
2022-12-03T21:14:05.330Z,19.95
2022-12-03T21:19:10.523Z,19.58
2022-12-03T21:24:14.253Z,21.33
2022-12-03T21:29:17.960Z,17.80
2022-12-03T21:34:24.047Z,16.13
2022-12-03T21:39:27.613Z,16.35
2022-12-03T21:44:31.315Z,15.30
2022-12-03T21:49:36.595Z,12.80
2022-12-03T21:54:40.250Z,13.68
2022-12-03T21:59:43.818Z,15.48
2022-12-03T22:04:52.622Z,13.27
2022-12-03T22:09:56.381Z,14.70
2022-12-03T22:15:00.155Z,12.82
2022-12-03T22:20:06.675Z,11.80
2022-12-03T22:25:10.447Z,12.73
2022-12-03T22:30:14.313Z,12.18
2022-12-03T22:35:19.599Z,14.13
2022-12-03T22:40:23.177Z,13.27
2022-12-03T22:45:26.757Z,13.93
2022-12-03T22:50:32.011Z,12.27
2022-12-03T22:55:35.592Z,12.82
2022-12-03T23:00:40.598Z,9.45
2022-12-03T23:05:46.026Z,9.18
2022-12-03T23:10:51.351Z,8.90
2022-12-03T23:15:54.985Z,10.05
2022-12-03T23:21:00.661Z,9.07
2022-12-03T23:26:05.659Z,9.13
2022-12-03T23:31:18.216Z,8.60
2022-12-03T23:36:24.776Z,8.05
2022-12-03T23:41:28.525Z,9.25
2022-12-03T23:46:32.149Z,8.30
2022-12-03T23:51:37.509Z,8.20
2022-12-03T23:56:41.049Z,7.35
